Time;durP1;ratioP1;P1;durP2;ratioP2;P2;SDS_P1;SDS_P2;PMS_P1;PMS_P2;Temp;Humidity;BMP_temperature;BMP_pressure;BME280_temperature;BME280_humidity;BME280_pressure;Samples;Min_cycle;Max_cycle;Signal;HPM_P1;HPM_P2
2021/11/28 00:00:28;;;;;;;8.15;2.60;;;1.70;99.90;;;;;;493990;241;27528;-73
2021/11/28 00:02:29;;;;;;;2.87;2.42;;;1.60;99.90;;;;;;493988;241;27485;-72
2021/11/28 00:04:31;;;;;;;3.42;2.90;;;1.60;99.90;;;;;;494004;241;27605;-73
2021/11/28 00:06:34;;;;;;;3.08;2.70;;;1.60;99.90;;;;;;494037;241;27501;-74
2021/11/28 00:13:05;;;;;;;3.25;2.50;;;1.70;99.90;;;;;;494004;241;27948;-73
2021/11/28 00:15:03;;;;;;;2.75;2.55;;;1.70;99.90;;;;;;493742;241;27470;-73
2021/11/28 00:17:04;;;;;;;3.00;2.70;;;1.70;99.90;;;;;;493981;241;27514;-73
2021/11/28 00:19:06;;;;;;;5.40;2.70;;;1.70;99.90;;;;;;494026;241;27544;-74
2021/11/28 00:21:07;;;;;;;2.40;2.20;;;1.70;99.90;;;;;;493989;241;27514;-74
2021/11/28 00:23:08;;;;;;;3.00;2.70;;;1.70;99.90;;;;;;493943;241;27509;-74
2021/11/28 00:25:09;;;;;;;2.50;2.30;;;1.70;99.90;;;;;;494005;241;27565;-73
2021/11/28 00:27:11;;;;;;;2.85;2.65;;;1.80;99.90;;;;;;493956;241;27923;-73
2021/11/28 00:29:12;;;;;;;3.62;2.62;;;1.80;99.90;;;;;;494022;241;28033;-73
2021/11/28 00:31:13;;;;;;;2.55;2.20;;;1.80;99.90;;;;;;493987;241;27944;-73
2021/11/28 00:33:14;;;;;;;4.22;2.70;;;1.80;99.90;;;;;;493963;241;28016;-74
2021/11/28 00:35:16;;;;;;;2.50;2.30;;;1.80;99.90;;;;;;494013;241;27476;-73
2021/11/28 00:37:17;;;;;;;4.57;2.47;;;1.80;99.90;;;;;;493999;241;27513;-73
2021/11/28 00:39:18;;;;;;;2.62;2.40;;;1.80;99.90;;;;;;494031;241;27497;-74
2021/11/28 00:41:19;;;;;;;2.58;2.35;;;1.80;99.90;;;;;;494008;239;27459;-73
2021/11/28 00:43:21;;;;;;;5.97;2.62;;;1.80;99.90;;;;;;493982;241;27549;-73
2021/11/28 00:45:22;;;;;;;4.60;2.78;;;1.80;99.90;;;;;;493973;241;27495;-73
2021/11/28 00:47:24;;;;;;;3.25;2.40;;;1.80;99.90;;;;;;494008;241;27532;-73
2021/11/28 00:49:26;;;;;;;3.37;2.80;;;1.80;99.90;;;;;;493949;241;27483;-73
2021/11/28 00:53:39;;;;;;;2.87;2.50;;;1.80;99.90;;;;;;486124;241;28020;-74
2021/11/28 00:55:40;;;;;;;2.85;2.62;;;1.90;99.90;;;;;;494047;241;27971;-73
2021/11/28 00:57:42;;;;;;;2.72;2.53;;;1.80;99.90;;;;;;493959;241;27457;-73
2021/11/28 00:59:43;;;;;;;4.18;2.40;;;1.90;99.90;;;;;;493986;241;27484;-74
2021/11/28 01:01:44;;;;;;;3.20;2.90;;;1.80;99.90;;;;;;493997;241;27550;-73
2021/11/28 01:03:45;;;;;;;2.70;2.50;;;1.80;99.90;;;;;;494037;241;27465;-73
2021/11/28 01:05:47;;;;;;;3.33;3.03;;;1.80;99.90;;;;;;494009;241;27509;-74
2021/11/28 01:07:48;;;;;;;2.83;2.33;;;1.90;99.90;;;;;;493974;241;27484;-73
2021/11/28 01:09:49;;;;;;;5.28;2.78;;;1.80;99.90;;;;;;493996;241;27618;-74
2021/11/28 01:11:50;;;;;;;4.80;3.03;;;1.90;99.90;;;;;;493975;241;27537;-74
2021/11/28 01:13:52;;;;;;;2.75;2.55;;;1.90;99.90;;;;;;494022;241;27473;-73
2021/11/28 01:15:53;;;;;;;2.87;2.67;;;1.90;99.90;;;;;;493990;241;27584;-74
2021/11/28 01:17:54;;;;;;;4.53;2.75;;;1.80;99.90;;;;;;493907;241;28034;-73
2021/11/28 01:19:55;;;;;;;3.35;2.67;;;1.80;99.90;;;;;;493973;241;27926;-73
2021/11/28 01:21:57;;;;;;;2.92;2.55;;;1.80;99.90;;;;;;494005;241;28162;-73
2021/11/28 01:23:58;;;;;;;3.62;2.67;;;1.80;99.90;;;;;;494020;241;28085;-73
2021/11/28 01:25:59;;;;;;;2.70;2.50;;;1.80;99.90;;;;;;493934;241;27577;-74
2021/11/28 01:28:00;;;;;;;6.00;3.12;;;1.80;99.90;;;;;;493968;241;27584;-73
2021/11/28 01:30:02;;;;;;;3.28;2.60;;;1.80;99.90;;;;;;493992;241;27568;-74
2021/11/28 01:32:03;;;;;;;4.05;2.40;;;1.80;99.90;;;;;;494029;241;27518;-73
2021/11/28 01:34:04;;;;;;;2.90;2.53;;;1.80;99.90;;;;;;494046;241;27471;-73
2021/11/28 01:36:05;;;;;;;3.40;3.10;;;1.80;99.90;;;;;;494043;241;27613;-73
2021/11/28 01:38:07;;;;;;;3.75;2.78;;;1.80;99.90;;;;;;494022;241;27881;-73
2021/11/28 01:40:08;;;;;;;4.37;2.90;;;1.80;99.90;;;;;;494010;241;27592;-73
2021/11/28 01:42:09;;;;;;;3.87;2.80;;;1.80;99.90;;;;;;494008;241;27504;-74
2021/11/28 01:44:10;;;;;;;3.10;2.50;;;1.80;99.90;;;;;;494003;241;27496;-76
2021/11/28 01:46:12;;;;;;;2.85;2.55;;;1.80;99.90;;;;;;493985;241;27974;-74
2021/11/28 01:48:13;;;;;;;2.80;2.55;;;1.80;99.90;;;;;;493991;241;28072;-73
2021/11/28 01:50:14;;;;;;;3.00;2.70;;;1.80;99.90;;;;;;494004;241;27936;-74
2021/11/28 01:52:16;;;;;;;4.20;2.90;;;1.80;99.90;;;;;;493982;241;28016;-73
2021/11/28 01:54:17;;;;;;;4.62;2.50;;;1.80;99.90;;;;;;493983;241;27586;-73
2021/11/28 01:56:18;;;;;;;3.42;2.78;;;1.70;99.90;;;;;;493978;241;27589;-73
2021/11/28 01:58:19;;;;;;;4.82;2.80;;;1.70;99.90;;;;;;494023;241;27546;-74
2021/11/28 02:00:20;;;;;;;3.03;2.62;;;1.80;99.90;;;;;;494025;241;27470;-73
2021/11/28 02:02:22;;;;;;;3.17;2.45;;;1.80;99.90;;;;;;494015;241;27634;-73
2021/11/28 02:04:23;;;;;;;2.97;2.30;;;1.70;99.90;;;;;;494025;241;27486;-73
2021/11/28 02:06:24;;;;;;;3.12;2.85;;;1.80;99.90;;;;;;493985;241;27511;-73
2021/11/28 02:08:25;;;;;;;5.40;2.60;;;1.80;99.90;;;;;;494009;241;27556;-73
2021/11/28 02:10:27;;;;;;;2.90;2.60;;;1.80;99.90;;;;;;493974;241;27475;-74
2021/11/28 02:12:29;;;;;;;4.47;2.70;;;1.80;99.90;;;;;;493992;241;27523;-74
2021/11/28 02:14:29;;;;;;;3.45;2.90;;;1.80;99.90;;;;;;493922;241;27952;-73
2021/11/28 02:16:31;;;;;;;3.28;2.60;;;1.70;99.90;;;;;;493987;241;27950;-74
2021/11/28 02:18:32;;;;;;;3.85;3.00;;;1.80;99.90;;;;;;494029;241;27975;-74
2021/11/28 02:20:33;;;;;;;3.00;2.80;;;1.70;99.90;;;;;;493786;241;27924;-73
2021/11/28 02:22:34;;;;;;;2.70;2.47;;;1.70;99.90;;;;;;493987;241;27558;-74
2021/11/28 02:24:35;;;;;;;3.30;2.62;;;1.70;99.90;;;;;;493960;241;27517;-73
2021/11/28 02:26:37;;;;;;;2.62;2.17;;;1.80;99.90;;;;;;494011;241;27561;-73
2021/11/28 02:28:38;;;;;;;2.90;2.62;;;1.80;99.90;;;;;;494014;241;27516;-74
2021/11/28 02:30:39;;;;;;;3.97;2.72;;;1.70;99.90;;;;;;493996;241;27548;-73
2021/11/28 02:32:40;;;;;;;2.62;2.42;;;1.70;99.90;;;;;;493974;241;27599;-74
2021/11/28 02:34:42;;;;;;;2.60;2.25;;;1.80;99.90;;;;;;494008;241;27556;-73
2021/11/28 02:36:43;;;;;;;2.90;2.70;;;1.70;99.90;;;;;;494017;241;27523;-73
2021/11/28 02:38:44;;;;;;;2.70;2.50;;;1.80;99.90;;;;;;493995;241;27518;-73
2021/11/28 02:40:45;;;;;;;3.67;2.87;;;1.70;99.90;;;;;;493993;241;27552;-73
2021/11/28 02:42:48;;;;;;;3.05;2.58;;;1.70;99.90;;;;;;493972;241;27979;-74
2021/11/28 02:44:48;;;;;;;2.72;2.53;;;1.70;99.90;;;;;;493950;241;28103;-73
2021/11/28 02:46:49;;;;;;;2.60;2.40;;;1.70;99.90;;;;;;494008;241;28010;-73
2021/11/28 02:48:50;;;;;;;3.17;2.67;;;1.70;99.90;;;;;;493975;241;27996;-73
2021/11/28 02:50:52;;;;;;;4.70;2.95;;;1.70;99.90;;;;;;493969;241;27469;-73
2021/11/28 02:52:53;;;;;;;2.80;2.60;;;1.70;99.90;;;;;;493966;241;27551;-74
2021/11/28 02:54:54;;;;;;;3.67;2.95;;;1.70;99.90;;;;;;493978;241;27658;-74
2021/11/28 02:56:55;;;;;;;2.58;2.40;;;1.70;99.90;;;;;;493983;241;27586;-73
2021/11/28 02:58:57;;;;;;;3.08;2.87;;;1.70;99.90;;;;;;493987;241;27576;-73
2021/11/28 03:00:58;;;;;;;3.55;3.00;;;1.70;99.90;;;;;;493979;241;27613;-73
2021/11/28 03:02:59;;;;;;;3.90;2.65;;;1.70;99.90;;;;;;493994;241;27628;-74
2021/11/28 03:05:00;;;;;;;5.82;2.90;;;1.70;99.90;;;;;;494007;241;27587;-73
2021/11/28 03:07:02;;;;;;;2.80;2.50;;;1.70;99.90;;;;;;493999;241;27549;-73
2021/11/28 03:09:03;;;;;;;5.65;2.95;;;1.70;99.90;;;;;;493976;241;27502;-74
2021/11/28 03:11:04;;;;;;;3.25;2.83;;;1.70;99.90;;;;;;493938;241;27918;-73
2021/11/28 03:13:05;;;;;;;2.90;2.70;;;1.70;99.90;;;;;;493989;241;28037;-74
2021/11/28 03:15:07;;;;;;;2.40;2.30;;;1.70;99.90;;;;;;493945;241;28060;-74
2021/11/28 03:17:08;;;;;;;3.28;3.00;;;1.80;99.90;;;;;;494012;241;28011;-73
2021/11/28 03:19:09;;;;;;;2.83;2.30;;;1.80;99.90;;;;;;493997;241;27504;-73
2021/11/28 03:21:10;;;;;;;2.80;2.60;;;1.80;99.90;;;;;;493961;241;27541;-73
2021/11/28 03:23:12;;;;;;;3.58;2.47;;;1.80;99.90;;;;;;493971;241;27531;-74
2021/11/28 03:25:13;;;;;;;3.65;2.87;;;1.80;99.90;;;;;;494003;241;27505;-74
2021/11/28 03:27:14;;;;;;;2.72;2.53;;;1.80;99.90;;;;;;493994;241;27475;-73
2021/11/28 03:29:15;;;;;;;3.78;2.30;;;1.80;99.90;;;;;;494019;241;27497;-73
2021/11/28 03:31:17;;;;;;;4.37;3.05;;;1.80;99.90;;;;;;493966;241;27543;-73
2021/11/28 03:33:18;;;;;;;2.65;2.45;;;1.70;99.90;;;;;;494042;241;27583;-73
2021/11/28 03:35:19;;;;;;;2.60;2.40;;;1.70;99.90;;;;;;494012;241;27524;-73
2021/11/28 03:37:20;;;;;;;2.55;2.45;;;1.70;99.90;;;;;;493907;241;27471;-73
2021/11/28 03:39:22;;;;;;;4.07;2.08;;;1.70;99.90;;;;;;493983;241;27957;-74
2021/11/28 03:41:23;;;;;;;2.80;2.37;;;1.70;99.90;;;;;;494032;241;28203;-73
2021/11/28 03:43:24;;;;;;;3.40;2.80;;;1.70;99.90;;;;;;494041;241;27922;-73
2021/11/28 03:45:25;;;;;;;2.40;2.20;;;1.70;99.90;;;;;;494023;241;28012;-74
2021/11/28 03:47:27;;;;;;;6.35;3.00;;;1.70;99.90;;;;;;494042;241;27454;-72
2021/11/28 03:49:28;;;;;;;3.50;2.55;;;1.70;99.90;;;;;;494020;241;27582;-73
2021/11/28 03:51:29;;;;;;;2.58;2.37;;;1.70;99.90;;;;;;494017;241;27511;-74
2021/11/28 03:53:30;;;;;;;3.03;2.75;;;1.70;99.90;;;;;;494007;241;27576;-73
2021/11/28 03:55:32;;;;;;;4.95;2.92;;;1.70;99.90;;;;;;494013;241;27501;-74
2021/11/28 03:57:33;;;;;;;3.22;2.92;;;1.70;99.90;;;;;;494035;241;27526;-73
2021/11/28 03:59:34;;;;;;;3.33;3.03;;;1.60;99.90;;;;;;493992;241;27502;-73
2021/11/28 04:01:35;;;;;;;2.87;2.65;;;1.60;99.90;;;;;;494023;241;27502;-74
2021/11/28 04:03:37;;;;;;;2.50;2.30;;;1.60;99.90;;;;;;494047;241;27462;-73
2021/11/28 04:05:38;;;;;;;2.60;2.40;;;1.60;99.90;;;;;;494045;241;27514;-73
2021/11/28 04:07:39;;;;;;;2.65;2.45;;;1.50;99.90;;;;;;494020;241;27936;-73
2021/11/28 04:09:40;;;;;;;3.75;2.90;;;1.60;99.90;;;;;;494029;241;27944;-73
2021/11/28 04:11:42;;;;;;;3.00;2.60;;;1.60;99.90;;;;;;494023;241;27968;-74
2021/11/28 04:13:43;;;;;;;2.90;2.45;;;1.50;99.90;;;;;;494029;241;28026;-73
2021/11/28 04:15:44;;;;;;;2.90;2.70;;;1.50;99.90;;;;;;494001;241;27590;-74
2021/11/28 04:17:45;;;;;;;2.72;2.53;;;1.50;99.90;;;;;;494017;241;27453;-73
2021/11/28 04:19:47;;;;;;;2.45;2.35;;;1.60;99.90;;;;;;494024;241;27481;-73
2021/11/28 04:21:48;;;;;;;2.80;2.60;;;1.50;99.90;;;;;;494021;241;27613;-73
2021/11/28 04:23:50;;;;;;;2.87;2.67;;;1.50;99.90;;;;;;494009;241;27461;-74
2021/11/28 04:25:50;;;;;;;2.50;2.30;;;1.60;99.90;;;;;;494022;241;27496;-73
2021/11/28 04:27:52;;;;;;;2.50;2.30;;;1.50;99.90;;;;;;494004;241;27602;-73
2021/11/28 04:29:53;;;;;;;2.97;2.60;;;1.50;99.90;;;;;;494054;241;27466;-73
2021/11/28 04:31:54;;;;;;;3.05;2.75;;;1.50;99.90;;;;;;494025;241;27560;-74
2021/11/28 04:33:55;;;;;;;2.78;2.58;;;1.50;99.90;;;;;;494014;241;27467;-73
2021/11/28 04:35:57;;;;;;;3.10;2.90;;;1.50;99.90;;;;;;493994;241;28068;-73
2021/11/28 04:37:58;;;;;;;2.50;2.40;;;1.50;99.90;;;;;;493987;239;28126;-72
2021/11/28 04:39:59;;;;;;;3.08;2.70;;;1.50;99.90;;;;;;493977;241;28094;-74
2021/11/28 04:42:00;;;;;;;2.80;2.60;;;1.50;99.90;;;;;;493954;241;28312;-73
2021/11/28 04:44:02;;;;;;;2.37;2.17;;;1.50;99.90;;;;;;493922;241;27493;-74
2021/11/28 04:46:03;;;;;;;2.85;2.58;;;1.50;99.90;;;;;;493858;241;27478;-73
2021/11/28 04:48:04;;;;;;;2.50;2.30;;;1.50;99.90;;;;;;493982;241;27530;-74
2021/11/28 04:50:05;;;;;;;2.67;2.47;;;1.50;99.90;;;;;;493996;241;27485;-73
2021/11/28 04:52:07;;;;;;;2.90;2.70;;;1.50;99.90;;;;;;493949;241;27497;-74
2021/11/28 04:54:08;;;;;;;2.60;2.40;;;1.50;99.90;;;;;;493958;241;27509;-72
2021/11/28 04:56:09;;;;;;;3.12;2.70;;;1.60;99.90;;;;;;493942;241;27540;-74
2021/11/28 04:58:10;;;;;;;5.10;2.30;;;1.60;99.90;;;;;;493985;241;27541;-74
2021/11/28 05:00:12;;;;;;;4.32;2.37;;;1.60;99.90;;;;;;493958;241;27464;-73
2021/11/28 05:02:13;;;;;;;2.70;2.50;;;1.60;99.90;;;;;;494005;241;28016;-74
2021/11/28 05:04:14;;;;;;;2.80;2.60;;;1.60;99.90;;;;;;494009;241;28009;-73
2021/11/28 05:06:15;;;;;;;2.53;2.33;;;1.60;99.90;;;;;;493999;241;28028;-73
2021/11/28 05:08:17;;;;;;;3.15;2.58;;;1.60;99.90;;;;;;494032;241;27977;-73
2021/11/28 05:10:18;;;;;;;3.45;2.85;;;1.60;99.90;;;;;;494012;241;27522;-73
2021/11/28 05:12:19;;;;;;;4.25;2.78;;;1.60;99.90;;;;;;494007;241;27524;-73
2021/11/28 05:14:20;;;;;;;3.58;3.15;;;1.60;99.90;;;;;;493999;241;27554;-73
2021/11/28 05:16:22;;;;;;;5.12;2.90;;;1.50;99.90;;;;;;494014;241;27618;-73
2021/11/28 05:18:23;;;;;;;4.55;2.95;;;1.50;99.90;;;;;;494003;241;27496;-73
2021/11/28 05:20:24;;;;;;;3.65;3.10;;;1.50;99.90;;;;;;493979;241;27477;-73
2021/11/28 05:22:26;;;;;;;5.03;2.67;;;1.50;99.90;;;;;;494022;241;27561;-74
2021/11/28 05:24:27;;;;;;;3.45;3.10;;;1.40;99.90;;;;;;493990;241;27456;-73
2021/11/28 05:26:28;;;;;;;3.10;2.83;;;1.40;99.90;;;;;;494019;241;27594;-73
2021/11/28 05:28:29;;;;;;;2.90;2.70;;;1.40;99.90;;;;;;493989;241;27601;-73
2021/11/28 05:30:30;;;;;;;4.35;2.78;;;1.40;99.90;;;;;;493991;241;27914;-73
2021/11/28 05:32:32;;;;;;;3.17;2.70;;;1.40;99.90;;;;;;493977;241;27966;-73
2021/11/28 05:34:33;;;;;;;3.20;2.90;;;1.40;99.90;;;;;;494000;241;28702;-73
2021/11/28 05:36:34;;;;;;;2.58;2.40;;;1.50;99.90;;;;;;493985;241;28004;-73
2021/11/28 05:38:35;;;;;;;3.20;2.90;;;1.40;99.90;;;;;;493992;241;27521;-74
2021/11/28 05:40:37;;;;;;;2.62;2.42;;;1.40;99.90;;;;;;493987;241;27560;-73
2021/11/28 05:42:38;;;;;;;2.55;2.40;;;1.50;99.90;;;;;;493976;241;27516;-73
2021/11/28 05:44:39;;;;;;;2.30;2.10;;;1.50;99.90;;;;;;494021;241;27506;-73
2021/11/28 05:46:40;;;;;;;2.92;2.50;;;1.50;99.90;;;;;;494018;241;27450;-73
2021/11/28 05:48:42;;;;;;;2.85;2.62;;;1.50;99.90;;;;;;493982;241;27619;-74
2021/11/28 05:50:43;;;;;;;2.62;2.45;;;1.50;99.90;;;;;;493990;241;27618;-73
2021/11/28 05:52:44;;;;;;;2.60;2.40;;;1.50;99.90;;;;;;493924;241;27503;-73
2021/11/28 05:54:47;;;;;;;3.72;2.70;;;1.40;99.90;;;;;;494028;241;27514;-74
2021/11/28 05:56:47;;;;;;;2.03;1.92;;;1.50;99.90;;;;;;493873;237;27458;-73
2021/11/28 05:58:48;;;;;;;2.62;2.42;;;1.50;99.90;;;;;;493963;241;27996;-73
2021/11/28 06:00:49;;;;;;;3.25;3.00;;;1.50;99.90;;;;;;493988;241;27914;-73
2021/11/28 06:02:50;;;;;;;2.78;2.58;;;1.50;99.90;;;;;;493990;241;27997;-73
2021/11/28 06:04:52;;;;;;;3.55;2.90;;;1.50;99.90;;;;;;494000;241;27999;-74
2021/11/28 06:06:53;;;;;;;3.30;3.05;;;1.50;99.90;;;;;;494034;237;27561;-73
2021/11/28 06:08:54;;;;;;;2.67;2.50;;;1.50;99.90;;;;;;493994;241;27604;-73
2021/11/28 06:10:55;;;;;;;3.08;2.87;;;1.50;99.90;;;;;;493996;241;27477;-73
2021/11/28 06:12:57;;;;;;;2.67;2.53;;;1.50;99.90;;;;;;493961;241;27482;-73
2021/11/28 06:14:58;;;;;;;2.50;2.30;;;1.50;99.90;;;;;;494007;241;27603;-73
2021/11/28 06:17:00;;;;;;;4.57;3.60;;;1.60;99.90;;;;;;494001;241;27485;-73
2021/11/28 06:19:00;;;;;;;3.65;3.33;;;1.60;99.90;;;;;;494001;241;27513;-73
2021/11/28 06:21:02;;;;;;;3.78;3.47;;;1.60;99.90;;;;;;494005;241;27485;-73
2021/11/28 06:23:03;;;;;;;3.45;3.15;;;1.60;99.90;;;;;;494082;241;27461;-74
2021/11/28 06:25:04;;;;;;;3.08;2.87;;;1.60;99.90;;;;;;494022;241;27624;-74
2021/11/28 06:27:05;;;;;;;3.33;3.03;;;1.60;99.90;;;;;;493955;241;27909;-73
2021/11/28 06:29:07;;;;;;;3.17;2.87;;;1.50;99.90;;;;;;493960;241;27968;-73
2021/11/28 06:31:08;;;;;;;3.28;3.03;;;1.60;99.90;;;;;;493969;241;28106;-73
2021/11/28 06:33:09;;;;;;;3.42;3.12;;;1.60;99.90;;;;;;494004;241;28051;-73
2021/11/28 06:35:10;;;;;;;3.83;3.50;;;1.60;99.90;;;;;;493999;241;27498;-74
2021/11/28 06:37:12;;;;;;;3.87;3.42;;;1.60;99.90;;;;;;493962;241;27545;-73
2021/11/28 06:39:13;;;;;;;4.18;3.37;;;1.50;99.90;;;;;;493838;241;27530;-74
2021/11/28 06:41:14;;;;;;;5.53;3.78;;;1.50;99.90;;;;;;493849;241;27510;-73
2021/11/28 06:43:15;;;;;;;3.22;2.90;;;1.50;99.90;;;;;;493816;241;27548;-73
2021/11/28 06:45:17;;;;;;;4.35;3.22;;;1.60;99.90;;;;;;493748;241;27546;-73
2021/11/28 06:47:18;;;;;;;3.97;3.40;;;1.50;99.90;;;;;;493857;241;27613;-73
2021/11/28 06:49:19;;;;;;;3.70;3.20;;;1.50;99.90;;;;;;493950;241;27584;-73
2021/11/28 06:51:20;;;;;;;4.07;3.30;;;1.50;99.90;;;;;;493980;241;27503;-74
2021/11/28 06:53:22;;;;;;;4.47;4.07;;;1.60;99.90;;;;;;493975;241;27494;-73
2021/11/28 06:55:23;;;;;;;4.32;3.92;;;1.60;99.90;;;;;;493983;241;28065;-74
2021/11/28 06:57:24;;;;;;;3.90;3.50;;;1.60;99.90;;;;;;493985;241;28704;-73
2021/11/28 06:59:26;;;;;;;4.05;3.45;;;1.60;99.90;;;;;;493981;241;27937;-74
2021/11/28 07:01:27;;;;;;;4.15;3.58;;;1.60;99.90;;;;;;493984;241;27996;-73
2021/11/28 07:03:28;;;;;;;4.35;3.55;;;1.60;99.90;;;;;;493983;241;27515;-73
2021/11/28 07:05:29;;;;;;;4.10;3.70;;;1.60;99.90;;;;;;494016;241;27505;-74
2021/11/28 07:07:30;;;;;;;5.28;3.65;;;1.60;99.90;;;;;;494014;241;27593;-73
2021/11/28 07:09:32;;;;;;;4.65;4.07;;;1.60;99.90;;;;;;494022;241;27456;-74
2021/11/28 07:11:33;;;;;;;3.87;3.47;;;1.60;99.90;;;;;;494032;241;27569;-74
2021/11/28 07:13:34;;;;;;;3.80;3.50;;;1.60;99.90;;;;;;493951;241;27575;-73
2021/11/28 07:15:36;;;;;;;4.25;3.50;;;1.60;99.90;;;;;;493997;241;27531;-73
2021/11/28 07:17:37;;;;;;;3.72;3.42;;;1.60;99.90;;;;;;494036;241;27550;-74
2021/11/28 07:19:40;;;;;;;3.67;3.37;;;1.70;99.90;;;;;;494048;241;27526;-73
2021/11/28 07:21:39;;;;;;;4.45;4.03;;;1.60;99.90;;;;;;493853;241;27522;-73
2021/11/28 07:23:41;;;;;;;4.12;3.70;;;1.60;99.90;;;;;;494003;241;27934;-73
2021/11/28 07:25:42;;;;;;;3.28;3.00;;;1.60;99.90;;;;;;494006;241;27944;-73
2021/11/28 07:27:43;;;;;;;4.15;3.75;;;1.60;99.90;;;;;;494024;239;28054;-74
2021/11/28 07:29:44;;;;;;;5.70;3.78;;;1.60;99.90;;;;;;494026;241;27922;-73
2021/11/28 07:31:46;;;;;;;3.95;3.47;;;1.60;99.90;;;;;;494005;241;27595;-74
2021/11/28 07:33:47;;;;;;;3.75;3.45;;;1.60;99.90;;;;;;493977;241;27474;-73
2021/11/28 07:35:48;;;;;;;3.83;3.53;;;1.60;99.90;;;;;;494001;241;27509;-73
2021/11/28 07:37:49;;;;;;;3.53;3.20;;;1.60;99.90;;;;;;494018;241;27500;-74
2021/11/28 07:39:51;;;;;;;3.80;3.40;;;1.70;99.90;;;;;;493940;241;27467;-73
2021/11/28 07:41:52;;;;;;;4.07;3.70;;;1.70;99.90;;;;;;493985;241;27580;-74
2021/11/28 07:43:53;;;;;;;3.97;3.17;;;1.70;99.90;;;;;;493995;241;27460;-74
2021/11/28 07:45:54;;;;;;;4.18;3.60;;;1.70;99.90;;;;;;494012;241;27471;-73
2021/11/28 07:47:56;;;;;;;4.07;3.67;;;1.70;99.90;;;;;;493997;241;27572;-74
2021/11/28 07:49:57;;;;;;;5.15;3.25;;;1.80;99.90;;;;;;494006;241;27469;-72
2021/11/28 07:51:58;;;;;;;4.15;3.28;;;1.80;99.90;;;;;;494000;241;28346;-73
2021/11/28 07:54:01;;;;;;;4.35;3.67;;;1.80;99.90;;;;;;494001;241;28142;-73
2021/11/28 07:56:01;;;;;;;3.78;3.37;;;1.80;99.90;;;;;;493913;241;27944;-73
2021/11/28 07:58:02;;;;;;;4.35;3.60;;;1.80;99.90;;;;;;494010;241;28023;-73
2021/11/28 08:00:03;;;;;;;3.97;3.58;;;1.90;99.90;;;;;;494010;241;27464;-73
2021/11/28 08:02:04;;;;;;;4.05;3.65;;;1.90;99.90;;;;;;494002;241;27604;-73
2021/11/28 08:04:06;;;;;;;4.50;4.10;;;1.90;99.90;;;;;;494060;241;27524;-74
2021/11/28 08:06:07;;;;;;;4.90;3.87;;;1.90;99.90;;;;;;494003;241;27479;-73
2021/11/28 08:08:10;;;;;;;4.28;3.85;;;2.00;99.90;;;;;;494007;241;27881;-74
2021/11/28 08:10:09;;;;;;;4.20;3.60;;;2.00;99.90;;;;;;493889;241;27591;-73
2021/11/28 08:12:11;;;;;;;4.80;4.30;;;2.00;99.90;;;;;;493999;241;27497;-73
2021/11/28 08:14:12;;;;;;;4.32;3.78;;;2.00;99.90;;;;;;494021;241;27518;-74
2021/11/28 08:16:13;;;;;;;4.28;3.40;;;2.00;99.90;;;;;;494015;241;27597;-73
2021/11/28 08:18:14;;;;;;;3.83;3.42;;;2.00;99.90;;;;;;494021;241;27931;-74
2021/11/28 08:20:16;;;;;;;4.00;3.58;;;2.00;99.90;;;;;;493985;241;28759;-73
2021/11/28 08:22:17;;;;;;;5.15;3.50;;;2.00;99.90;;;;;;494008;241;27917;-73
2021/11/28 08:24:18;;;;;;;3.30;3.00;;;2.10;99.90;;;;;;494030;241;28359;-73
2021/11/28 08:26:19;;;;;;;3.55;3.25;;;2.10;99.90;;;;;;494015;240;27497;-73
2021/11/28 08:28:21;;;;;;;4.15;3.75;;;2.10;99.90;;;;;;494046;240;27491;-73
2021/11/28 08:30:22;;;;;;;3.67;3.37;;;2.00;99.90;;;;;;494007;241;27513;-73
2021/11/28 08:32:23;;;;;;;3.55;3.25;;;2.00;99.90;;;;;;494019;241;27459;-74
2021/11/28 08:34:24;;;;;;;6.93;3.50;;;2.00;99.90;;;;;;493928;241;27528;-74
2021/11/28 08:36:26;;;;;;;4.60;3.40;;;2.10;99.90;;;;;;494027;241;27469;-73
2021/11/28 08:38:27;;;;;;;3.22;3.03;;;2.10;99.90;;;;;;494037;241;27501;-74
2021/11/28 08:40:28;;;;;;;3.97;3.25;;;2.10;99.90;;;;;;493952;241;27511;-74
2021/11/28 08:42:33;;;;;;;5.62;3.97;;;2.10;99.90;;;;;;494064;241;27498;-73
2021/11/28 08:44:31;;;;;;;4.43;4.03;;;2.10;99.90;;;;;;493749;241;27499;-73
2021/11/28 08:46:32;;;;;;;4.55;3.85;;;2.10;99.90;;;;;;494007;241;28011;-73
2021/11/28 08:48:33;;;;;;;7.87;4.40;;;2.10;99.90;;;;;;494014;241;27990;-73
2021/11/28 08:50:34;;;;;;;4.30;3.80;;;2.10;99.90;;;;;;493990;237;28163;-74
2021/11/28 08:52:36;;;;;;;4.43;4.03;;;2.10;99.90;;;;;;494046;241;28026;-73
2021/11/28 08:54:37;;;;;;;5.20;4.35;;;2.10;99.90;;;;;;494027;241;27549;-73
2021/11/28 08:56:38;;;;;;;3.87;3.58;;;2.20;99.90;;;;;;494027;241;27503;-73
2021/11/28 08:58:39;;;;;;;4.10;3.72;;;2.20;99.90;;;;;;493936;241;27501;-73
2021/11/28 09:00:41;;;;;;;5.22;3.90;;;2.20;99.90;;;;;;493984;241;27490;-74
2021/11/28 09:02:42;;;;;;;4.70;4.20;;;2.20;99.90;;;;;;494032;241;27600;-73
2021/11/28 09:04:43;;;;;;;4.68;3.90;;;2.20;99.90;;;;;;494013;241;27520;-74
2021/11/28 09:06:44;;;;;;;3.95;3.60;;;2.20;99.90;;;;;;494015;241;27479;-72
2021/11/28 09:08:46;;;;;;;5.25;4.00;;;2.20;99.90;;;;;;493974;241;27481;-73
2021/11/28 09:10:47;;;;;;;7.97;5.18;;;2.20;99.90;;;;;;493991;241;27535;-72
2021/11/28 09:12:48;;;;;;;8.82;4.82;;;2.30;99.90;;;;;;494014;241;27560;-72
2021/11/28 09:14:49;;;;;;;5.60;4.55;;;2.30;99.90;;;;;;493969;241;27533;-72
2021/11/28 09:16:51;;;;;;;5.90;4.37;;;2.30;99.90;;;;;;493993;241;28684;-72
2021/11/28 09:19:06;;;;;;;6.10;4.70;;;2.30;99.90;;;;;;494006;241;28017;-72
2021/11/28 09:20:58;;;;;;;5.57;4.22;;;2.30;99.90;;;;;;492874;241;28039;-74
2021/11/28 09:24:56;;;;;;;5.20;4.28;;;2.30;99.90;;;;;;493993;241;27501;-72
2021/11/28 09:26:57;;;;;;;4.72;3.72;;;2.40;99.90;;;;;;494021;241;27559;-73
2021/11/28 09:28:58;;;;;;;4.87;3.80;;;2.40;99.90;;;;;;493976;241;27756;-74
2021/11/28 09:30:59;;;;;;;4.50;4.10;;;2.40;99.90;;;;;;493858;241;27497;-74
2021/11/28 09:33:01;;;;;;;5.68;3.85;;;2.50;99.90;;;;;;493984;241;27462;-73
2021/11/28 09:35:02;;;;;;;5.03;3.70;;;2.50;99.90;;;;;;493972;241;27609;-73
2021/11/28 09:37:03;;;;;;;4.05;3.65;;;2.50;99.90;;;;;;494019;241;27509;-73
2021/11/28 09:39:04;;;;;;;3.97;3.58;;;2.60;99.90;;;;;;493995;241;27543;-73
2021/11/28 09:41:06;;;;;;;3.78;3.30;;;2.60;99.90;;;;;;493995;241;27499;-73
2021/11/28 09:43:07;;;;;;;3.20;2.95;;;2.60;99.90;;;;;;493993;241;28012;-72
2021/11/28 09:45:08;;;;;;;3.55;3.25;;;2.50;99.90;;;;;;493938;241;28493;-73
2021/11/28 09:47:10;;;;;;;5.22;3.40;;;2.50;99.90;;;;;;494018;241;28086;-73
2021/11/28 09:49:11;;;;;;;3.22;2.95;;;2.60;99.90;;;;;;493963;241;27481;-72
2021/11/28 09:51:12;;;;;;;4.15;3.75;;;2.50;99.90;;;;;;493983;241;27492;-74
2021/11/28 09:53:15;;;;;;;4.00;3.60;;;2.50;99.90;;;;;;493978;241;27458;-73
2021/11/28 09:55:15;;;;;;;3.40;3.00;;;2.50;99.90;;;;;;493939;241;27938;-73
2021/11/28 09:57:16;;;;;;;3.40;3.12;;;2.50;99.90;;;;;;494002;241;27938;-74
2021/11/28 09:59:17;;;;;;;4.40;3.00;;;2.50;99.90;;;;;;493979;241;29037;-73
2021/11/28 10:01:18;;;;;;;5.80;3.45;;;2.50;99.90;;;;;;493957;241;28126;-73
2021/11/28 10:03:20;;;;;;;3.12;2.90;;;2.50;99.90;;;;;;493925;241;27507;-73
2021/11/28 10:05:21;;;;;;;3.25;2.90;;;2.60;99.90;;;;;;494017;241;27510;-73
2021/11/28 10:07:22;;;;;;;3.15;2.75;;;2.60;99.90;;;;;;493997;241;27509;-74
2021/11/28 10:09:23;;;;;;;3.00;2.60;;;2.70;99.90;;;;;;493980;241;27470;-73
2021/11/28 10:11:24;;;;;;;4.03;3.20;;;2.70;99.90;;;;;;493969;241;27564;-74
2021/11/28 10:13:26;;;;;;;3.33;3.03;;;2.70;99.90;;;;;;493982;241;27618;-73
2021/11/28 10:15:30;;;;;;;3.30;3.00;;;2.80;99.90;;;;;;493977;241;27489;-74
2021/11/28 10:17:28;;;;;;;3.22;2.97;;;2.80;99.90;;;;;;493798;238;27577;-74
2021/11/28 10:19:32;;;;;;;3.40;3.10;;;2.80;99.90;;;;;;493991;237;27519;-73
2021/11/28 10:21:33;;;;;;;3.30;3.00;;;2.90;99.90;;;;;;493802;241;27975;-73
2021/11/28 10:23:32;;;;;;;3.95;3.10;;;2.90;99.90;;;;;;493874;241;28069;-74
2021/11/28 10:25:33;;;;;;;2.95;2.75;;;2.90;99.90;;;;;;493998;241;28013;-73
2021/11/28 10:27:34;;;;;;;3.00;2.70;;;2.90;99.90;;;;;;494002;241;28021;-73
2021/11/28 10:29:40;;;;;;;3.03;2.83;;;2.90;99.90;;;;;;493968;241;27481;-73
2021/11/28 10:31:41;;;;;;;5.32;3.22;;;2.90;99.90;;;;;;493959;241;27502;-74
2021/11/28 10:33:42;;;;;;;3.70;2.75;;;2.90;99.90;;;;;;493986;241;27581;-73
2021/11/28 10:35:44;;;;;;;3.08;2.83;;;2.90;99.90;;;;;;493964;241;27493;-73
2021/11/28 10:37:45;;;;;;;3.40;3.10;;;2.90;99.90;;;;;;493960;241;27502;-73
2021/11/28 10:39:46;;;;;;;3.10;2.80;;;3.00;99.90;;;;;;493983;241;28464;-75
2021/11/28 10:41:49;;;;;;;3.50;3.20;;;3.00;99.90;;;;;;494011;241;27931;-73
2021/11/28 10:43:49;;;;;;;3.28;3.03;;;3.00;99.90;;;;;;493897;241;29089;-73
2021/11/28 10:45:51;;;;;;;2.95;2.72;;;3.10;99.90;;;;;;493861;241;27565;-73
2021/11/28 10:47:51;;;;;;;3.15;2.85;;;3.10;99.90;;;;;;493931;241;27501;-73